Time;durP1;ratioP1;P1;durP2;ratioP2;P2;SDS_P1;SDS_P2;PMS_P1;PMS_P2;Temp;Humidity;BMP_temperature;BMP_pressure;BME280_temperature;BME280_humidity;BME280_pressure;Samples;Min_cycle;Max_cycle;Signal;HPM_P1;HPM_P2
2022/07/13 00:00:14;;;;;;;17.38;10.00;;;;;;;;;;4993441;28;20394;-65
2022/07/13 00:02:40;;;;;;;15.90;9.60;;;;;;;;;;4991348;28;20029;-66
2022/07/13 00:05:06;;;;;;;16.45;9.43;;;;;;;;;;4993172;28;20026;-66
2022/07/13 00:07:32;;;;;;;16.67;9.38;;;;;;;;;;4993195;28;20110;-66
2022/07/13 00:09:58;;;;;;;15.65;9.23;;;;;;;;;;4993213;28;20030;-64
2022/07/13 00:12:25;;;;;;;15.23;9.20;;;;;;;;;;4993226;28;20109;-66
2022/07/13 00:14:51;;;;;;;16.05;9.93;;;;;;;;;;4993151;28;20108;-66
2022/07/13 00:17:17;;;;;;;16.27;9.30;;;;;;;;;;4993405;28;20475;-66
2022/07/13 00:19:43;;;;;;;16.95;9.40;;;;;;;;;;4993627;28;20050;-65
2022/07/13 00:22:09;;;;;;;15.10;9.10;;;;;;;;;;4993636;28;20077;-65
2022/07/13 00:24:35;;;;;;;16.38;9.27;;;;;;;;;;4991828;28;20029;-65
2022/07/13 00:27:01;;;;;;;15.30;9.60;;;;;;;;;;4994648;28;20038;-65
2022/07/13 00:29:27;;;;;;;15.85;10.00;;;;;;;;;;4993286;28;20027;-65
2022/07/13 00:31:53;;;;;;;16.33;10.00;;;;;;;;;;4993419;28;20023;-64
2022/07/13 00:34:19;;;;;;;16.65;9.98;;;;;;;;;;4993097;28;20080;-66
2022/07/13 00:36:45;;;;;;;16.08;9.98;;;;;;;;;;4991840;28;20077;-66
2022/07/13 00:39:11;;;;;;;16.90;10.48;;;;;;;;;;4992910;28;20049;-66
2022/07/13 00:41:44;;;;;;;17.70;10.60;;;;;;;;;;4992990;28;20513;-66
2022/07/13 00:44:11;;;;;;;15.40;10.25;;;;;;;;;;4991934;28;20028;-65
2022/07/13 00:46:37;;;;;;;15.52;10.63;;;;;;;;;;4993063;28;20109;-66
2022/07/13 00:49:03;;;;;;;18.45;10.52;;;;;;;;;;4991555;28;20026;-63
2022/07/13 00:51:30;;;;;;;16.15;10.68;;;;;;;;;;4993070;28;20030;-66
2022/07/13 00:53:56;;;;;;;18.10;10.60;;;;;;;;;;4992912;28;20033;-65
2022/07/13 00:56:23;;;;;;;16.15;11.10;;;;;;;;;;4993017;28;20027;-65
2022/07/13 00:58:49;;;;;;;16.42;10.55;;;;;;;;;;4992757;28;20041;-65
2022/07/13 01:01:16;;;;;;;16.77;10.70;;;;;;;;;;4992976;28;20355;-66
2022/07/13 01:03:42;;;;;;;16.90;11.00;;;;;;;;;;4991707;28;20034;-66
2022/07/13 01:06:08;;;;;;;16.63;11.10;;;;;;;;;;4991651;28;20026;-66
2022/07/13 01:08:35;;;;;;;17.25;10.93;;;;;;;;;;4992510;28;20065;-65
2022/07/13 01:11:02;;;;;;;17.20;11.60;;;;;;;;;;4992934;28;20073;-64
2022/07/13 01:13:28;;;;;;;17.23;11.82;;;;;;;;;;4992655;28;20541;-64
2022/07/13 01:15:54;;;;;;;18.70;12.27;;;;;;;;;;4991442;28;20030;-66
2022/07/13 01:18:21;;;;;;;17.05;11.80;;;;;;;;;;4992708;28;20045;-66
2022/07/13 01:20:47;;;;;;;16.58;11.85;;;;;;;;;;4992751;28;20440;-66
2022/07/13 01:23:16;;;;;;;17.13;13.05;;;;;;;;;;4992747;28;20026;-66
2022/07/13 01:25:43;;;;;;;16.95;12.20;;;;;;;;;;4992452;28;20036;-67
2022/07/13 01:28:09;;;;;;;17.55;12.38;;;;;;;;;;4992484;28;20402;-64
2022/07/13 01:30:35;;;;;;;18.52;12.95;;;;;;;;;;4991465;28;20029;-66
2022/07/13 01:33:01;;;;;;;18.60;13.50;;;;;;;;;;4992643;28;20541;-66
2022/07/13 01:35:27;;;;;;;17.85;13.50;;;;;;;;;;4992713;28;20459;-66
2022/07/13 01:37:54;;;;;;;18.38;13.10;;;;;;;;;;4992322;28;20050;-64
2022/07/13 01:40:20;;;;;;;18.52;13.70;;;;;;;;;;4991365;28;20026;-64
2022/07/13 01:42:47;;;;;;;20.77;13.52;;;;;;;;;;4991451;28;20097;-64
2022/07/13 01:45:15;;;;;;;18.17;12.85;;;;;;;;;;4992668;28;20418;-64
2022/07/13 01:47:42;;;;;;;19.23;12.70;;;;;;;;;;4992271;28;20022;-66
2022/07/13 01:50:09;;;;;;;17.05;12.75;;;;;;;;;;4992449;28;20094;-65
2022/07/13 01:52:35;;;;;;;17.45;12.73;;;;;;;;;;4992512;28;20026;-66
2022/07/13 01:55:02;;;;;;;18.02;12.77;;;;;;;;;;4992560;28;20171;-66
2022/07/13 01:57:28;;;;;;;17.00;12.38;;;;;;;;;;4992354;28;20026;-66
2022/07/13 01:59:58;;;;;;;19.23;12.43;;;;;;;;;;4992433;28;20065;-66
2022/07/13 02:02:24;;;;;;;19.40;12.95;;;;;;;;;;4992360;28;20030;-66
2022/07/13 02:04:50;;;;;;;18.48;12.75;;;;;;;;;;4991002;28;20380;-67
2022/07/13 02:07:16;;;;;;;16.95;12.60;;;;;;;;;;4991951;28;20080;-67
2022/07/13 02:09:42;;;;;;;17.20;12.85;;;;;;;;;;4992371;28;20023;-65
2022/07/13 02:12:08;;;;;;;21.83;12.93;;;;;;;;;;4992297;28;20467;-66
2022/07/13 02:14:34;;;;;;;23.48;12.68;;;;;;;;;;4990922;28;20603;-66
2022/07/13 02:17:00;;;;;;;18.73;12.40;;;;;;;;;;4992348;28;20034;-66
2022/07/13 02:19:27;;;;;;;18.30;12.95;;;;;;;;;;4991851;28;20046;-66
2022/07/13 02:21:53;;;;;;;19.90;13.25;;;;;;;;;;4992306;28;20077;-66
2022/07/13 02:24:19;;;;;;;18.23;13.00;;;;;;;;;;4992055;28;20022;-66
2022/07/13 02:26:45;;;;;;;19.65;13.35;;;;;;;;;;4993678;28;20034;-65
2022/07/13 02:29:11;;;;;;;19.30;13.00;;;;;;;;;;4994554;28;20049;-66
2022/07/13 02:31:37;;;;;;;20.05;13.00;;;;;;;;;;4995680;28;20073;-66
2022/07/13 02:34:03;;;;;;;18.50;12.90;;;;;;;;;;4995635;28;20023;-64
2022/07/13 02:36:29;;;;;;;18.30;12.45;;;;;;;;;;4994101;28;20030;-66
2022/07/13 02:38:55;;;;;;;17.83;12.75;;;;;;;;;;4995379;28;20026;-66
2022/07/13 02:41:21;;;;;;;19.48;13.15;;;;;;;;;;4995498;28;20101;-66
2022/07/13 02:43:47;;;;;;;20.85;12.48;;;;;;;;;;4995614;28;20160;-66
2022/07/13 02:46:12;;;;;;;17.48;12.55;;;;;;;;;;4995085;28;20045;-65
2022/07/13 02:48:38;;;;;;;18.00;13.02;;;;;;;;;;4994725;28;20540;-66
2022/07/13 02:51:05;;;;;;;21.10;12.25;;;;;;;;;;4995092;28;20029;-66
2022/07/13 02:53:31;;;;;;;17.88;11.45;;;;;;;;;;4995076;28;20031;-66
2022/07/13 02:55:58;;;;;;;16.55;11.35;;;;;;;;;;4995149;28;20022;-66
2022/07/13 02:58:24;;;;;;;19.27;12.80;;;;;;;;;;4994876;28;20045;-66
2022/07/13 03:00:50;;;;;;;21.58;12.32;;;;;;;;;;4995009;28;20391;-67
2022/07/13 03:03:16;;;;;;;18.13;12.45;;;;;;;;;;4994961;28;20026;-66
2022/07/13 03:05:42;;;;;;;20.67;11.82;;;;;;;;;;4994864;28;20030;-66
2022/07/13 03:08:08;;;;;;;18.70;11.95;;;;;;;;;;4994564;28;20030;-66
2022/07/13 03:10:34;;;;;;;18.13;11.57;;;;;;;;;;4994400;28;20038;-66
2022/07/13 03:13:00;;;;;;;17.90;11.60;;;;;;;;;;4994839;28;20022;-65
2022/07/13 03:15:26;;;;;;;18.30;11.82;;;;;;;;;;4994768;28;20022;-66
2022/07/13 03:17:52;;;;;;;18.27;11.70;;;;;;;;;;4994304;28;20774;-65
2022/07/13 03:20:19;;;;;;;17.65;11.57;;;;;;;;;;4994962;28;20026;-65
2022/07/13 03:22:45;;;;;;;17.25;11.43;;;;;;;;;;4993213;28;20121;-65
2022/07/13 03:25:12;;;;;;;19.13;12.18;;;;;;;;;;4994397;28;20068;-66
2022/07/13 03:27:38;;;;;;;18.08;11.80;;;;;;;;;;4994249;28;20376;-65
2022/07/13 03:30:04;;;;;;;17.65;10.85;;;;;;;;;;4993151;28;20041;-64
2022/07/13 03:32:30;;;;;;;20.17;11.57;;;;;;;;;;4994241;28;20372;-63
2022/07/13 03:34:57;;;;;;;18.13;11.35;;;;;;;;;;4994085;28;20030;-64
2022/07/13 03:37:23;;;;;;;17.33;10.82;;;;;;;;;;4993251;28;20018;-65
2022/07/13 03:39:49;;;;;;;16.80;10.80;;;;;;;;;;4992422;28;20018;-65
2022/07/13 03:42:15;;;;;;;19.17;11.38;;;;;;;;;;4994140;28;20022;-64
2022/07/13 03:44:41;;;;;;;20.23;12.18;;;;;;;;;;4993887;28;20034;-64
2022/07/13 03:47:07;;;;;;;18.42;11.40;;;;;;;;;;4994202;28;20027;-66
2022/07/13 03:49:33;;;;;;;19.80;12.18;;;;;;;;;;4993967;28;20467;-65
2022/07/13 03:51:59;;;;;;;17.02;11.30;;;;;;;;;;4993869;28;20034;-64
2022/07/13 03:54:25;;;;;;;17.55;11.15;;;;;;;;;;4994066;28;20061;-64
2022/07/13 03:56:50;;;;;;;17.67;10.80;;;;;;;;;;4993890;28;20018;-65
2022/07/13 03:59:16;;;;;;;17.05;11.52;;;;;;;;;;4992088;28;20114;-64
2022/07/13 04:01:43;;;;;;;17.23;11.77;;;;;;;;;;4993549;28;20026;-65
2022/07/13 04:04:09;;;;;;;18.05;11.60;;;;;;;;;;4992526;28;20049;-65
2022/07/13 04:06:35;;;;;;;18.23;11.63;;;;;;;;;;4993457;28;20026;-65
2022/07/13 04:09:01;;;;;;;16.75;11.70;;;;;;;;;;4993488;28;20475;-64
2022/07/13 04:11:27;;;;;;;17.05;11.18;;;;;;;;;;4993684;28;20384;-65
2022/07/13 04:13:53;;;;;;;19.92;11.45;;;;;;;;;;4993314;28;20033;-65
2022/07/13 04:16:19;;;;;;;17.08;11.45;;;;;;;;;;4993791;28;20030;-65
2022/07/13 04:18:45;;;;;;;16.95;11.27;;;;;;;;;;4993128;28;20474;-65
2022/07/13 04:21:13;;;;;;;16.77;11.20;;;;;;;;;;4993300;28;20022;-64
2022/07/13 04:23:40;;;;;;;18.98;11.52;;;;;;;;;;4993240;28;20038;-64
2022/07/13 04:26:06;;;;;;;16.70;11.40;;;;;;;;;;4993008;28;20069;-65
2022/07/13 04:28:32;;;;;;;18.42;11.10;;;;;;;;;;4992931;28;20098;-64
2022/07/13 04:30:59;;;;;;;17.33;11.20;;;;;;;;;;4991920;28;20022;-62
2022/07/13 04:33:25;;;;;;;18.38;11.02;;;;;;;;;;4992865;28;20034;-62
2022/07/13 04:35:51;;;;;;;17.77;11.52;;;;;;;;;;4992662;28;20028;-64
2022/07/13 04:38:17;;;;;;;16.92;11.32;;;;;;;;;;4992483;28;20496;-64
2022/07/13 04:40:43;;;;;;;18.15;11.30;;;;;;;;;;4991630;28;20026;-64
2022/07/13 04:43:09;;;;;;;20.10;12.75;;;;;;;;;;4992649;28;20402;-64
2022/07/13 04:45:35;;;;;;;17.95;11.00;;;;;;;;;;4992855;28;20022;-65
2022/07/13 04:48:01;;;;;;;17.77;11.45;;;;;;;;;;4992142;28;20514;-65
2022/07/13 04:50:27;;;;;;;17.55;11.73;;;;;;;;;;4992307;28;20022;-65
2022/07/13 04:52:53;;;;;;;18.25;11.45;;;;;;;;;;4992747;28;20022;-64
2022/07/13 04:55:19;;;;;;;16.75;11.90;;;;;;;;;;4992635;28;20495;-64
2022/07/13 04:57:45;;;;;;;21.13;11.48;;;;;;;;;;4992196;28;20105;-65
2022/07/13 05:00:11;;;;;;;17.60;11.45;;;;;;;;;;4992504;28;20034;-65
2022/07/13 05:02:38;;;;;;;16.50;11.27;;;;;;;;;;4992601;28;20030;-66
2022/07/13 05:05:04;;;;;;;17.73;11.65;;;;;;;;;;4992381;28;20026;-64
2022/07/13 05:07:30;;;;;;;16.17;11.00;;;;;;;;;;4992220;28;20018;-65
2022/07/13 05:09:56;;;;;;;16.75;11.43;;;;;;;;;;4991163;28;20030;-63
2022/07/13 05:12:22;;;;;;;17.67;11.77;;;;;;;;;;4992340;28;20054;-64
2022/07/13 05:14:49;;;;;;;17.50;11.50;;;;;;;;;;4992268;28;20026;-65
2022/07/13 05:17:16;;;;;;;18.35;11.93;;;;;;;;;;4992334;28;20390;-63
2022/07/13 05:19:42;;;;;;;17.65;11.25;;;;;;;;;;4991930;28;20018;-62
2022/07/13 05:22:08;;;;;;;17.33;11.60;;;;;;;;;;4992426;28;20033;-63
2022/07/13 05:24:34;;;;;;;17.60;12.02;;;;;;;;;;4990680;28;20045;-64
2022/07/13 05:27:00;;;;;;;16.92;12.18;;;;;;;;;;4992038;28;20479;-66
2022/07/13 05:29:25;;;;;;;17.67;12.23;;;;;;;;;;4991963;28;20030;-65
2022/07/13 05:31:52;;;;;;;17.38;12.63;;;;;;;;;;4992394;28;20108;-65
2022/07/13 05:34:18;;;;;;;16.80;11.80;;;;;;;;;;4992224;28;20034;-65
2022/07/13 05:36:43;;;;;;;18.23;12.60;;;;;;;;;;4992221;28;20026;-66
2022/07/13 05:39:09;;;;;;;19.40;11.82;;;;;;;;;;4990795;28;20073;-64
2022/07/13 05:41:35;;;;;;;17.55;11.88;;;;;;;;;;4990920;28;20113;-66
2022/07/13 05:44:01;;;;;;;18.42;12.38;;;;;;;;;;4992575;28;20459;-63
2022/07/13 05:46:28;;;;;;;19.83;12.30;;;;;;;;;;4992199;28;20027;-63
2022/07/13 05:48:54;;;;;;;18.30;12.30;;;;;;;;;;4990589;28;20058;-64
2022/07/13 05:51:20;;;;;;;17.85;12.45;;;;;;;;;;4992440;28;20066;-65
2022/07/13 05:53:46;;;;;;;19.92;13.50;;;;;;;;;;4991953;28;20027;-66
2022/07/13 05:56:13;;;;;;;17.25;11.93;;;;;;;;;;4992002;28;20057;-64
2022/07/13 05:58:39;;;;;;;19.30;12.17;;;;;;;;;;4991836;28;20221;-66
2022/07/13 06:01:05;;;;;;;18.75;12.35;;;;;;;;;;4992945;28;20097;-66
2022/07/13 06:03:31;;;;;;;17.63;11.43;;;;;;;;;;4995496;28;20057;-66
2022/07/13 06:05:57;;;;;;;16.80;11.90;;;;;;;;;;4995758;28;20022;-66
2022/07/13 06:08:23;;;;;;;19.35;12.32;;;;;;;;;;4995367;28;20391;-65
2022/07/13 06:10:49;;;;;;;16.98;11.95;;;;;;;;;;4995501;28;20027;-65
2022/07/13 06:13:15;;;;;;;16.40;12.10;;;;;;;;;;4995664;28;20026;-66
2022/07/13 06:15:41;;;;;;;18.35;11.13;;;;;;;;;;4994741;28;20489;-65
2022/07/13 06:18:07;;;;;;;17.73;11.18;;;;;;;;;;4995326;28;20029;-66
2022/07/13 06:20:33;;;;;;;17.55;11.30;;;;;;;;;;5001178;28;20444;-66
2022/07/13 06:23:12;;;;;;;15.98;11.35;;;;;;;;;;5002461;28;20081;-67
2022/07/13 06:25:38;;;;;;;;;;;;;;;;;;5015958;28;20034;-66
2022/07/13 06:28:04;;;;;;;19.05;11.73;;;;;;;;;;5005733;28;19910;-66
2022/07/13 06:30:30;;;;;;;17.65;11.38;;;;;;;;;;4995055;28;20023;-66
2022/07/13 06:32:56;;;;;;;21.13;12.25;;;;;;;;;;4995232;28;20026;-66
2022/07/13 06:35:22;;;;;;;19.80;11.85;;;;;;;;;;4994890;28;20487;-66
2022/07/13 06:37:49;;;;;;;18.48;12.82;;;;;;;;;;5013292;28;20029;-66
2022/07/13 06:40:15;;;;;;;18.25;11.43;;;;;;;;;;5014487;28;20021;-66
2022/07/13 06:42:41;;;;;;;16.05;11.27;;;;;;;;;;5014691;28;20022;-66
2022/07/13 06:45:07;;;;;;;16.35;11.27;;;;;;;;;;5014541;28;20056;-67
2022/07/13 06:47:33;;;;;;;16.20;11.60;;;;;;;;;;5014281;28;20433;-67
2022/07/13 06:49:59;;;;;;;16.83;11.65;;;;;;;;;;5014512;28;20018;-66
2022/07/13 06:52:25;;;;;;;16.63;11.23;;;;;;;;;;5014200;28;20022;-64
2022/07/13 06:54:51;;;;;;;16.70;11.15;;;;;;;;;;4995424;28;20042;-65
2022/07/13 06:57:17;;;;;;;17.52;11.52;;;;;;;;;;4994639;28;20026;-62
2022/07/13 06:59:43;;;;;;;19.35;11.98;;;;;;;;;;4994742;28;20030;-65
2022/07/13 07:02:09;;;;;;;15.73;11.30;;;;;;;;;;4994779;28;20403;-66
2022/07/13 07:04:35;;;;;;;15.85;10.90;;;;;;;;;;4995169;28;20029;-65
2022/07/13 07:07:02;;;;;;;16.00;11.38;;;;;;;;;;4995182;28;20109;-66
2022/07/13 07:09:28;;;;;;;15.98;11.35;;;;;;;;;;5004491;28;20622;-65
2022/07/13 07:11:55;;;;;;;18.27;11.82;;;;;;;;;;5004763;28;20026;-65
2022/07/13 07:14:21;;;;;;;16.77;11.38;;;;;;;;;;5005548;28;20053;-64
2022/07/13 07:16:47;;;;;;;19.30;11.73;;;;;;;;;;5005700;28;20026;-66
2022/07/13 07:19:13;;;;;;;16.35;11.38;;;;;;;;;;5003308;28;20027;-66
2022/07/13 07:21:40;;;;;;;17.65;11.68;;;;;;;;;;5002899;28;20018;-66
2022/07/13 07:24:06;;;;;;;18.17;11.63;;;;;;;;;;5000208;28;20026;-66
2022/07/13 07:26:32;;;;;;;19.15;12.00;;;;;;;;;;4994648;28;20144;-65
2022/07/13 07:28:58;;;;;;;16.25;11.70;;;;;;;;;;4993937;28;20034;-66
2022/07/13 07:31:25;;;;;;;16.98;11.30;;;;;;;;;;4992546;28;20394;-62
2022/07/13 07:33:51;;;;;;;18.23;11.90;;;;;;;;;;4993342;28;20038;-66
2022/07/13 07:36:17;;;;;;;18.17;12.05;;;;;;;;;;4996265;28;20057;-64
2022/07/13 07:38:43;;;;;;;19.15;11.60;;;;;;;;;;4995701;28;20372;-64
2022/07/13 07:41:10;;;;;;;16.92;11.32;;;;;;;;;;4996917;28;20022;-65
2022/07/13 07:43:36;;;;;;;15.82;10.80;;;;;;;;;;4994457;28;20483;-64
2022/07/13 07:46:02;;;;;;;19.02;11.43;;;;;;;;;;4992914;28;20026;-64
2022/07/13 07:48:28;;;;;;;16.73;11.40;;;;;;;;;;4993088;28;20030;-64
2022/07/13 07:50:55;;;;;;;16.42;11.60;;;;;;;;;;4994003;28;20366;-62
2022/07/13 07:53:21;;;;;;;17.13;11.63;;;;;;;;;;4993733;28;20033;-64
2022/07/13 07:55:47;;;;;;;15.88;11.40;;;;;;;;;;5006666;28;20022;-65
2022/07/13 07:58:13;;;;;;;16.60;11.70;;;;;;;;;;5012738;28;20443;-63
2022/07/13 08:00:40;;;;;;;16.80;11.13;;;;;;;;;;5013001;28;20041;-69
2022/07/13 08:03:06;;;;;;;16.23;11.50;;;;;;;;;;5013061;28;20022;-70
2022/07/13 08:05:32;;;;;;;16.15;11.57;;;;;;;;;;5013039;28;20020;-69
2022/07/13 08:07:58;;;;;;;16.33;11.82;;;;;;;;;;5011183;28;20125;-69
2022/07/13 08:10:24;;;;;;;18.15;12.27;;;;;;;;;;5013070;28;20037;-70
2022/07/13 08:12:51;;;;;;;17.55;12.25;;;;;;;;;;5013050;28;20065;-68
2022/07/13 08:15:17;;;;;;;16.80;12.07;;;;;;;;;;5011422;28;20509;-68
2022/07/13 08:57:56;;;;;;;16.42;11.80;;;;;;;;;;4995128;28;20105;-65
2022/07/13 09:00:22;;;;;;;19.08;12.15;;;;;;;;;;4992457;28;20491;-65
2022/07/13 09:12:15;;;;;;;18.85;11.63;;;;;;;;;;4991348;28;20033;-64
2022/07/13 09:14:41;;;;;;;17.38;11.40;;;;;;;;;;4992302;28;20052;-64
2022/07/13 09:17:07;;;;;;;17.40;11.70;;;;;;;;;;4992176;28;20101;-63
2022/07/13 09:19:39;;;;;;;17.25;11.32;;;;;;;;;;4992272;28;20093;-64
2022/07/13 09:22:14;;;;;;;16.38;11.15;;;;;;;;;;4992471;28;20043;-64
2022/07/13 09:24:47;;;;;;;16.92;11.77;;;;;;;;;;4992185;28;20185;-63
2022/07/13 09:27:14;;;;;;;20.67;12.90;;;;;;;;;;4991503;28;20030;-64
2022/07/13 09:29:40;;;;;;;16.02;12.40;;;;;;;;;;4998354;28;20022;-63
2022/07/13 09:32:07;;;;;;;18.02;12.07;;;;;;;;;;5001769;28;20029;-63
2022/07/13 09:34:46;;;;;;;18.30;11.67;;;;;;;;;;5008894;28;20026;-64
2022/07/13 09:37:12;;;;;;;16.13;11.63;;;;;;;;;;5015529;28;20376;-65
2022/07/13 09:39:57;;;;;;;16.38;12.05;;;;;;;;;;5014148;28;20026;-61
2022/07/13 09:42:30;;;;;;;17.65;12.25;;;;;;;;;;5015456;28;20422;-63
2022/07/13 09:48:00;;;;;;;16.42;11.70;;;;;;;;;;5015301;28;20099;-63
2022/07/13 09:50:39;;;;;;;15.77;11.35;;;;;;;;;;5015157;28;20025;-61
2022/07/13 09:53:23;;;;;;;17.98;11.20;;;;;;;;;;5015352;28;20026;-61
2022/07/13 09:55:51;;;;;;;16.27;11.05;;;;;;;;;;5015668;28;20446;-61
2022/07/13 09:58:19;;;;;;;19.67;11.80;;;;;;;;;;5015541;28;20097;-61
2022/07/13 10:00:45;;;;;;;17.63;11.48;;;;;;;;;;5014141;28;20121;-62
2022/07/13 10:03:12;;;;;;;15.52;11.00;;;;;;;;;;5015552;28;20026;-62
2022/07/13 10:05:38;;;;;;;17.23;11.27;;;;;;;;;;5014806;28;20026;-62
2022/07/13 10:08:05;;;;;;;15.98;11.07;;;;;;;;;;5014708;28;20033;-62
2022/07/13 10:10:32;;;;;;;18.80;11.43;;;;;;;;;;5015011;28;20075;-63
2022/07/13 10:13:05;;;;;;;19.23;12.15;;;;;;;;;;5014799;28;20026;-63
2022/07/13 10:15:31;;;;;;;15.80;11.35;;;;;;;;;;5014923;28;20030;-63
2022/07/13 10:17:58;;;;;;;16.17;11.27;;;;;;;;;;5014565;28;20026;-63
2022/07/13 10:20:26;;;;;;;15.52;11.05;;;;;;;;;;5015334;28;20030;-62
2022/07/13 10:22:52;;;;;;;17.40;11.30;;;;;;;;;;5000229;28;20030;-63
2022/07/13 10:25:18;;;;;;;19.35;11.43;;;;;;;;;;4993757;28;20045;-63
2022/07/13 10:27:44;;;;;;;16.52;11.68;;;;;;;;;;4994623;28;20042;-63
2022/07/13 10:30:20;;;;;;;16.23;11.40;;;;;;;;;;4995121;28;20030;-63
2022/07/13 10:32:47;;;;;;;15.55;11.52;;;;;;;;;;4995109;28;20101;-63
2022/07/13 10:35:16;;;;;;;20.52;11.93;;;;;;;;;;4995079;28;20030;-62
2022/07/13 10:38:03;;;;;;;16.05;11.60;;;;;;;;;;4993348;28;20018;-63
2022/07/13 10:40:29;;;;;;;15.50;11.40;;;;;;;;;;4984257;28;20113;-62
2022/07/13 10:43:03;;;;;;;17.58;11.80;;;;;;;;;;4994517;28;20085;-62
2022/07/13 10:45:32;;;;;;;16.80;11.65;;;;;;;;;;4994430;28;20068;-61
2022/07/13 10:47:59;;;;;;;16.67;11.60;;;;;;;;;;4993824;28;20027;-63
2022/07/13 10:50:34;;;;;;;16.90;11.60;;;;;;;;;;4994564;28;20084;-63
2022/07/13 10:53:01;;;;;;;16.67;11.82;;;;;;;;;;4993153;28;20023;-63
2022/07/13 10:55:36;;;;;;;16.58;12.07;;;;;;;;;;4992840;28;20483;-63
2022/07/13 10:58:21;;;;;;;17.15;11.55;;;;;;;;;;4994252;28;20023;-62
2022/07/13 11:00:48;;;;;;;16.00;11.73;;;;;;;;;;4994656;28;20026;-62
2022/07/13 11:03:44;;;;;;;16.90;11.73;;;;;;;;;;4994604;28;20030;-62
2022/07/13 11:06:15;;;;;;;17.02;11.30;;;;;;;;;;4982095;28;20105;-61
2022/07/13 11:08:41;;;;;;;16.27;11.65;;;;;;;;;;4994502;28;20061;-61
2022/07/13 11:11:14;;;;;;;17.55;12.10;;;;;;;;;;4994466;28;20026;-62
2022/07/13 11:13:41;;;;;;;16.73;11.50;;;;;;;;;;4994431;28;20113;-63
2022/07/13 11:16:10;;;;;;;18.05;11.60;;;;;;;;;;4994346;28;20022;-62
2022/07/13 11:18:37;;;;;;;15.77;11.30;;;;;;;;;;4993954;28;20023;-62
2022/07/13 11:21:03;;;;;;;17.15;11.35;;;;;;;;;;4994247;28;20076;-56
2022/07/13 11:26:19;;;;;;;17.65;12.00;;;;;;;;;;4994144;28;20049;-58
2022/07/13 11:29:18;;;;;;;17.55;11.77;;;;;;;;;;4993393;28;20026;-60
2022/07/13 11:31:45;;;;;;;17.23;11.52;;;;;;;;;;4961551;28;20046;-62
2022/07/13 11:34:11;;;;;;;16.38;12.10;;;;;;;;;;4993010;28;20116;-63
2022/07/13 11:36:40;;;;;;;19.65;12.90;;;;;;;;;;4994317;28;20026;-62
2022/07/13 11:39:21;;;;;;;16.85;12.18;;;;;;;;;;4994133;28;20030;-64
2022/07/13 11:41:47;;;;;;;18.55;12.95;;;;;;;;;;4994335;28;20023;-62
2022/07/13 11:44:13;;;;;;;16.85;13.02;;;;;;;;;;4994288;28;20022;-63
2022/07/13 11:46:39;;;;;;;15.98;12.73;;;;;;;;;;4993834;28;20096;-63
2022/07/13 11:49:06;;;;;;;15.93;12.45;;;;;;;;;;4993687;28;20034;-63
2022/07/13 11:51:32;;;;;;;17.63;12.30;;;;;;;;;;4993916;28;20031;-64
2022/07/13 11:54:12;;;;;;;18.90;13.38;;;;;;;;;;4992717;28;20030;-63
2022/07/13 11:56:49;;;;;;;17.25;12.98;;;;;;;;;;4993650;28;20026;-62
2022/07/13 11:59:15;;;;;;;20.55;12.70;;;;;;;;;;4992415;28;20029;-64
2022/07/13 12:01:51;;;;;;;15.60;11.70;;;;;;;;;;4993667;28;20024;-60
2022/07/13 12:04:26;;;;;;;16.42;12.50;;;;;;;;;;4993219;28;20414;-61
2022/07/13 12:07:08;;;;;;;19.25;13.27;;;;;;;;;;4993562;28;20030;-61
2022/07/13 12:09:34;;;;;;;18.70;12.82;;;;;;;;;;4993442;28;20030;-61
2022/07/13 12:12:00;;;;;;;19.40;13.00;;;;;;;;;;4993321;28;20041;-61
2022/07/13 12:14:26;;;;;;;16.52;12.93;;;;;;;;;;4993024;28;20493;-61
2022/07/13 12:16:52;;;;;;;21.77;12.10;;;;;;;;;;4997890;28;20080;-62
2022/07/13 12:19:25;;;;;;;17.10;12.70;;;;;;;;;;5069293;28;20403;-66
2022/07/13 12:21:58;;;;;;;16.73;13.10;;;;;;;;;;5061585;28;20091;-66
2022/07/13 12:24:24;;;;;;;19.90;13.73;;;;;;;;;;5048842;28;20044;-66
2022/07/13 12:26:53;;;;;;;17.85;13.02;;;;;;;;;;5056605;23;20044;-65
2022/07/13 12:29:34;;;;;;;21.98;12.82;;;;;;;;;;5047065;28;20406;-65
2022/07/13 12:32:01;;;;;;;18.83;13.30;;;;;;;;;;5049291;28;20393;-65
2022/07/13 12:34:27;;;;;;;17.27;13.13;;;;;;;;;;5052164;28;20056;-66
2022/07/13 12:36:53;;;;;;;20.05;13.43;;;;;;;;;;5055972;28;20025;-66
2022/07/13 12:39:20;;;;;;;17.33;13.52;;;;;;;;;;5050014;28;20025;-65
2022/07/13 12:41:55;;;;;;;17.35;12.98;;;;;;;;;;5051594;28;20477;-66
2022/07/13 12:44:31;;;;;;;19.70;12.68;;;;;;;;;;5067457;28;20128;-65
2022/07/13 12:47:00;;;;;;;17.67;12.63;;;;;;;;;;5048862;28;20026;-65
2022/07/13 12:49:30;;;;;;;17.33;12.60;;;;;;;;;;5047825;28;20028;-66
2022/07/13 12:52:02;;;;;;;16.50;12.00;;;;;;;;;;5048530;28;20025;-66
2022/07/13 12:54:47;;;;;;;16.90;13.43;;;;;;;;;;5047477;28;20021;-66
2022/07/13 12:57:15;;;;;;;16.60;12.95;;;;;;;;;;5054664;28;20071;-66
2022/07/13 12:59:41;;;;;;;20.02;13.57;;;;;;;;;;5048437;28;20096;-66
2022/07/13 13:02:08;;;;;;;16.92;13.20;;;;;;;;;;5047897;28;20055;-66
2022/07/13 13:04:34;;;;;;;17.40;12.80;;;;;;;;;;5047432;28;20052;-67
2022/07/13 13:07:00;;;;;;;17.45;12.80;;;;;;;;;;5057350;28;20433;-67
2022/07/13 13:09:26;;;;;;;17.50;12.48;;;;;;;;;;5047971;28;20025;-67
2022/07/13 13:11:52;;;;;;;19.25;12.90;;;;;;;;;;5048378;28;20014;-67
2022/07/13 13:14:18;;;;;;;19.45;12.75;;;;;;;;;;5048302;28;20470;-66
2022/07/13 13:16:45;;;;;;;17.02;13.35;;;;;;;;;;5048338;28;20044;-67
2022/07/13 13:19:11;;;;;;;16.55;13.20;;;;;;;;;;5047854;28;20485;-67
2022/07/13 13:21:38;;;;;;;17.42;12.80;;;;;;;;;;5056051;28;20032;-67
2022/07/13 13:24:09;;;;;;;16.70;13.18;;;;;;;;;;5049156;28;20017;-67
2022/07/13 13:26:45;;;;;;;18.15;12.60;;;;;;;;;;5053533;28;20501;-66
2022/07/13 13:31:56;;;;;;;16.30;12.45;;;;;;;;;;5035149;28;20519;-66
2022/07/13 13:34:23;;;;;;;18.23;13.13;;;;;;;;;;5034323;28;20017;-65
2022/07/13 13:36:49;;;;;;;18.00;12.93;;;;;;;;;;5034540;28;20037;-66
2022/07/13 13:39:16;;;;;;;18.35;12.50;;;;;;;;;;5034483;28;20034;-66
2022/07/13 13:41:42;;;;;;;17.63;12.48;;;;;;;;;;5032582;28;20028;-66
2022/07/13 13:44:08;;;;;;;16.70;12.30;;;;;;;;;;5035138;28;20017;-67
2022/07/13 13:46:34;;;;;;;18.25;12.70;;;;;;;;;;5034767;28;20017;-66
2022/07/13 13:49:00;;;;;;;17.80;12.82;;;;;;;;;;5033245;28;20045;-67
2022/07/13 13:51:26;;;;;;;17.27;12.88;;;;;;;;;;5035246;28;20036;-67
2022/07/13 13:53:52;;;;;;;16.02;12.57;;;;;;;;;;5033985;28;20370;-67
2022/07/13 13:56:19;;;;;;;17.08;12.95;;;;;;;;;;5036142;28;20083;-67
2022/07/13 13:58:45;;;;;;;16.58;13.27;;;;;;;;;;5035746;28;20030;-67
2022/07/13 14:01:11;;;;;;;16.98;13.30;;;;;;;;;;5037135;28;20079;-67
2022/07/13 14:03:38;;;;;;;16.10;12.77;;;;;;;;;;5034949;28;20029;-67
2022/07/13 14:06:05;;;;;;;16.80;13.20;;;;;;;;;;5035861;28;20029;-66
2022/07/13 14:08:31;;;;;;;17.60;13.02;;;;;;;;;;5034303;28;20044;-66
2022/07/13 14:10:57;;;;;;;16.73;13.32;;;;;;;;;;5034815;28;20029;-66
2022/07/13 14:13:23;;;;;;;18.65;13.52;;;;;;;;;;5034544;28;20037;-67
2022/07/13 14:15:49;;;;;;;18.15;13.77;;;;;;;;;;5034562;28;20028;-66
2022/07/13 14:18:15;;;;;;;16.85;13.30;;;;;;;;;;5034498;28;20021;-66
2022/07/13 14:20:42;;;;;;;16.95;13.63;;;;;;;;;;5034493;28;20099;-66
2022/07/13 14:23:08;;;;;;;17.92;13.90;;;;;;;;;;5034657;28;20018;-66
2022/07/13 14:25:34;;;;;;;16.42;13.18;;;;;;;;;;5034491;28;20052;-66
2022/07/13 14:28:01;;;;;;;16.70;13.52;;;;;;;;;;5033836;28;20060;-67
2022/07/13 14:30:27;;;;;;;16.02;12.93;;;;;;;;;;5034329;28;20029;-68
2022/07/13 14:32:53;;;;;;;17.15;13.18;;;;;;;;;;5033711;28;20029;-67
2022/07/13 14:35:19;;;;;;;17.33;13.40;;;;;;;;;;5033733;28;20374;-66
2022/07/13 14:37:45;;;;;;;19.02;13.45;;;;;;;;;;5033431;28;20025;-65
2022/07/13 14:40:11;;;;;;;16.48;13.05;;;;;;;;;;5033739;28;20018;-66
2022/07/13 14:42:37;;;;;;;18.02;13.55;;;;;;;;;;5031817;28;20045;-66
2022/07/13 14:45:03;;;;;;;17.33;13.23;;;;;;;;;;5032502;28;20467;-66
2022/07/13 14:47:29;;;;;;;17.33;12.43;;;;;;;;;;4683576;28;10000310;-66
2022/07/13 14:49:55;;;;;;;17.27;12.82;;;;;;;;;;5025778;28;20022;-66
2022/07/13 14:52:21;;;;;;;16.50;13.23;;;;;;;;;;5040381;28;20030;-66
2022/07/13 14:54:47;;;;;;;16.63;13.07;;;;;;;;;;5011977;28;20071;-67
2022/07/13 14:57:13;;;;;;;19.13;13.10;;;;;;;;;;5023084;28;20017;-67
2022/07/13 14:59:39;;;;;;;16.65;13.38;;;;;;;;;;5033249;28;20502;-66
2022/07/13 15:02:05;;;;;;;16.27;13.13;;;;;;;;;;5033085;28;20167;-66
2022/07/13 15:04:34;;;;;;;15.70;12.43;;;;;;;;;;5032939;28;20029;-67
2022/07/13 15:07:00;;;;;;;16.30;12.70;;;;;;;;;;5013535;28;20105;-67
2022/07/13 15:09:26;;;;;;;17.48;12.80;;;;;;;;;;5013686;28;20398;-67
2022/07/13 15:11:52;;;;;;;16.15;12.02;;;;;;;;;;5013553;28;20036;-67
2022/07/13 15:14:18;;;;;;;16.10;12.55;;;;;;;;;;5013550;28;20072;-67
2022/07/13 15:16:44;;;;;;;17.90;12.52;;;;;;;;;;4667353;28;10000497;-68